sensor_id;sensor_type;location;lat;lon;timestamp;temperature;humidity
30234;DHT22;17046;52.074;4.748;2023-04-01T00:00:47;9.70;99.90
30234;DHT22;17046;52.074;4.748;2023-04-01T00:03:13;9.40;99.90
30234;DHT22;17046;52.074;4.748;2023-04-01T00:05:38;9.60;99.90
30234;DHT22;17046;52.074;4.748;2023-04-01T00:08:07;9.60;99.90
30234;DHT22;17046;52.074;4.748;2023-04-01T00:10:33;9.60;99.90
30234;DHT22;17046;52.074;4.748;2023-04-01T00:12:58;9.60;99.90
30234;DHT22;17046;52.074;4.748;2023-04-01T00:15:24;9.50;99.90
30234;DHT22;17046;52.074;4.748;2023-04-01T00:17:49;9.60;99.90
30234;DHT22;17046;52.074;4.748;2023-04-01T00:20:15;9.50;99.90
30234;DHT22;17046;52.074;4.748;2023-04-01T00:22:41;9.50;99.90
30234;DHT22;17046;52.074;4.748;2023-04-01T00:25:07;9.40;99.90
30234;DHT22;17046;52.074;4.748;2023-04-01T00:27:32;9.40;99.90
30234;DHT22;17046;52.074;4.748;2023-04-01T00:29:58;9.40;99.90
30234;DHT22;17046;52.074;4.748;2023-04-01T00:32:26;9.40;99.90
30234;DHT22;17046;52.074;4.748;2023-04-01T00:34:52;9.40;99.90
30234;DHT22;17046;52.074;4.748;2023-04-01T00:37:21;9.40;99.90
30234;DHT22;17046;52.074;4.748;2023-04-01T00:39:48;9.40;99.90
30234;DHT22;17046;52.074;4.748;2023-04-01T00:42:14;9.30;99.90
30234;DHT22;17046;52.074;4.748;2023-04-01T00:44:40;8.90;99.90
30234;DHT22;17046;52.074;4.748;2023-04-01T00:47:06;9.30;99.90
30234;DHT22;17046;52.074;4.748;2023-04-01T00:49:40;8.70;99.90
30234;DHT22;17046;52.074;4.748;2023-04-01T00:52:08;9.30;99.90
30234;DHT22;17046;52.074;4.748;2023-04-01T00:54:36;9.30;99.90
30234;DHT22;17046;52.074;4.748;2023-04-01T00:57:09;9.30;99.90
30234;DHT22;17046;52.074;4.748;2023-04-01T00:59:41;9.30;99.90
30234;DHT22;17046;52.074;4.748;2023-04-01T01:02:13;9.40;99.90
30234;DHT22;17046;52.074;4.748;2023-04-01T01:12:58;9.30;99.90
30234;DHT22;17046;52.074;4.748;2023-04-01T01:15:28;9.30;99.90
30234;DHT22;17046;52.074;4.748;2023-04-01T01:18:19;9.30;99.90
30234;DHT22;17046;52.074;4.748;2023-04-01T01:23:57;9.20;99.90
30234;DHT22;17046;52.074;4.748;2023-04-01T01:26:48;9.20;99.90
30234;DHT22;17046;52.074;4.748;2023-04-01T01:35:19;9.30;99.90
30234;DHT22;17046;52.074;4.748;2023-04-01T01:37:47;9.10;99.90
30234;DHT22;17046;52.074;4.748;2023-04-01T01:40:15;9.70;99.90
30234;DHT22;17046;52.074;4.748;2023-04-01T01:42:54;9.20;99.90
30234;DHT22;17046;52.074;4.748;2023-04-01T01:45:23;9.20;99.90
30234;DHT22;17046;52.074;4.748;2023-04-01T01:47:51;9.20;99.90
30234;DHT22;17046;52.074;4.748;2023-04-01T01:50:17;9.30;99.90
30234;DHT22;17046;52.074;4.748;2023-04-01T01:52:44;9.20;99.90
30234;DHT22;17046;52.074;4.748;2023-04-01T01:55:29;9.20;99.90
30234;DHT22;17046;52.074;4.748;2023-04-01T01:57:59;9.20;99.90
30234;DHT22;17046;52.074;4.748;2023-04-01T02:00:28;9.20;99.90
30234;DHT22;17046;52.074;4.748;2023-04-01T02:02:54;9.40;99.90
30234;DHT22;17046;52.074;4.748;2023-04-01T02:05:23;9.20;99.90
30234;DHT22;17046;52.074;4.748;2023-04-01T02:08:09;9.20;99.90
30234;DHT22;17046;52.074;4.748;2023-04-01T02:10:40;9.20;99.90
30234;DHT22;17046;52.074;4.748;2023-04-01T02:16:01;9.20;99.90
30234;DHT22;17046;52.074;4.748;2023-04-01T02:18:30;9.40;99.90
30234;DHT22;17046;52.074;4.748;2023-04-01T02:20:59;9.20;99.90
30234;DHT22;17046;52.074;4.748;2023-04-01T02:23:25;9.20;99.90
30234;DHT22;17046;52.074;4.748;2023-04-01T02:25:52;9.20;99.90
30234;DHT22;17046;52.074;4.748;2023-04-01T02:28:19;9.20;99.90
30234;DHT22;17046;52.074;4.748;2023-04-01T02:30:47;9.20;99.90
30234;DHT22;17046;52.074;4.748;2023-04-01T02:33:15;9.20;99.90
30234;DHT22;17046;52.074;4.748;2023-04-01T02:35:41;9.20;99.90
30234;DHT22;17046;52.074;4.748;2023-04-01T02:38:06;9.30;99.90
30234;DHT22;17046;52.074;4.748;2023-04-01T02:40:47;9.20;99.90
30234;DHT22;17046;52.074;4.748;2023-04-01T02:43:14;9.70;99.90
30234;DHT22;17046;52.074;4.748;2023-04-01T02:45:39;9.20;99.90
30234;DHT22;17046;52.074;4.748;2023-04-01T02:48:05;9.30;99.90
30234;DHT22;17046;52.074;4.748;2023-04-01T02:50:31;9.30;99.90
30234;DHT22;17046;52.074;4.748;2023-04-01T02:52:56;9.30;99.90
30234;DHT22;17046;52.074;4.748;2023-04-01T02:55:22;9.30;99.90
30234;DHT22;17046;52.074;4.748;2023-04-01T02:57:48;9.90;99.90
30234;DHT22;17046;52.074;4.748;2023-04-01T03:00:16;9.40;99.90
30234;DHT22;17046;52.074;4.748;2023-04-01T03:02:45;9.40;99.90
30234;DHT22;17046;52.074;4.748;2023-04-01T03:05:10;9.40;99.90
30234;DHT22;17046;52.074;4.748;2023-04-01T03:07:36;9.40;99.90
30234;DHT22;17046;52.074;4.748;2023-04-01T03:10:02;9.50;99.90
30234;DHT22;17046;52.074;4.748;2023-04-01T03:12:27;9.50;99.90
30234;DHT22;17046;52.074;4.748;2023-04-01T03:14:53;9.50;99.90
30234;DHT22;17046;52.074;4.748;2023-04-01T03:17:18;9.60;99.90
30234;DHT22;17046;52.074;4.748;2023-04-01T03:19:44;9.60;99.90
30234;DHT22;17046;52.074;4.748;2023-04-01T03:22:11;9.70;99.90
30234;DHT22;17046;52.074;4.748;2023-04-01T03:24:36;9.70;99.90
30234;DHT22;17046;52.074;4.748;2023-04-01T03:27:02;9.70;99.90
30234;DHT22;17046;52.074;4.748;2023-04-01T03:29:28;9.70;99.90
30234;DHT22;17046;52.074;4.748;2023-04-01T03:31:53;9.80;99.90
30234;DHT22;17046;52.074;4.748;2023-04-01T03:34:19;9.70;99.90
30234;DHT22;17046;52.074;4.748;2023-04-01T03:36:45;9.70;99.90
30234;DHT22;17046;52.074;4.748;2023-04-01T03:39:10;9.80;99.90
30234;DHT22;17046;52.074;4.748;2023-04-01T03:41:37;9.70;99.90
30234;DHT22;17046;52.074;4.748;2023-04-01T03:44:03;9.80;99.90
30234;DHT22;17046;52.074;4.748;2023-04-01T03:46:29;9.70;99.90
30234;DHT22;17046;52.074;4.748;2023-04-01T03:48:54;9.80;99.90
30234;DHT22;17046;52.074;4.748;2023-04-01T03:53:46;9.80;99.90
30234;DHT22;17046;52.074;4.748;2023-04-01T03:56:11;9.70;99.90
30234;DHT22;17046;52.074;4.748;2023-04-01T03:58:37;9.80;99.90
30234;DHT22;17046;52.074;4.748;2023-04-01T04:01:13;9.80;99.90
30234;DHT22;17046;52.074;4.748;2023-04-01T04:03:39;9.70;99.90
30234;DHT22;17046;52.074;4.748;2023-04-01T04:06:04;9.70;99.90
30234;DHT22;17046;52.074;4.748;2023-04-01T04:08:30;9.70;99.90
30234;DHT22;17046;52.074;4.748;2023-04-01T04:10:56;9.70;99.90
30234;DHT22;17046;52.074;4.748;2023-04-01T04:13:21;9.70;99.90
30234;DHT22;17046;52.074;4.748;2023-04-01T04:15:47;9.70;99.90
30234;DHT22;17046;52.074;4.748;2023-04-01T04:18:12;9.70;99.90
30234;DHT22;17046;52.074;4.748;2023-04-01T04:20:44;9.70;99.90
30234;DHT22;17046;52.074;4.748;2023-04-01T04:23:11;9.70;99.90
30234;DHT22;17046;52.074;4.748;2023-04-01T04:25:36;9.80;99.90
30234;DHT22;17046;52.074;4.748;2023-04-01T04:28:02;9.70;99.90
30234;DHT22;17046;52.074;4.748;2023-04-01T04:30:27;9.80;99.90
30234;DHT22;17046;52.074;4.748;2023-04-01T04:32:53;10.00;99.90
30234;DHT22;17046;52.074;4.748;2023-04-01T04:35:18;9.70;99.90
30234;DHT22;17046;52.074;4.748;2023-04-01T04:37:44;9.70;99.90
30234;DHT22;17046;52.074;4.748;2023-04-01T04:40:10;9.70;99.90
30234;DHT22;17046;52.074;4.748;2023-04-01T04:42:39;9.70;99.90
30234;DHT22;17046;52.074;4.748;2023-04-01T04:45:07;9.60;99.90
30234;DHT22;17046;52.074;4.748;2023-04-01T04:47:33;9.70;99.90
30234;DHT22;17046;52.074;4.748;2023-04-01T04:49:58;9.70;99.90
30234;DHT22;17046;52.074;4.748;2023-04-01T04:52:24;9.70;99.90
30234;DHT22;17046;52.074;4.748;2023-04-01T04:54:50;9.70;99.90
30234;DHT22;17046;52.074;4.748;2023-04-01T04:57:15;9.70;99.90
30234;DHT22;17046;52.074;4.748;2023-04-01T04:59:41;9.70;99.90
30234;DHT22;17046;52.074;4.748;2023-04-01T05:02:06;9.70;99.90
30234;DHT22;17046;52.074;4.748;2023-04-01T05:04:36;9.70;99.90
30234;DHT22;17046;52.074;4.748;2023-04-01T05:07:02;9.60;99.90
30234;DHT22;17046;52.074;4.748;2023-04-01T05:09:28;9.60;99.90
30234;DHT22;17046;52.074;4.748;2023-04-01T05:11:53;9.60;99.90
30234;DHT22;17046;52.074;4.748;2023-04-01T05:14:19;9.40;99.90
30234;DHT22;17046;52.074;4.748;2023-04-01T05:16:45;9.60;99.90
30234;DHT22;17046;52.074;4.748;2023-04-01T05:19:11;9.50;99.90
30234;DHT22;17046;52.074;4.748;2023-04-01T05:21:36;9.60;99.90
30234;DHT22;17046;52.074;4.748;2023-04-01T05:24:02;9.60;99.90
30234;DHT22;17046;52.074;4.748;2023-04-01T05:26:27;9.50;99.90
30234;DHT22;17046;52.074;4.748;2023-04-01T05:28:53;9.50;99.90
30234;DHT22;17046;52.074;4.748;2023-04-01T05:31:19;9.50;99.90
30234;DHT22;17046;52.074;4.748;2023-04-01T05:33:44;9.50;99.90
30234;DHT22;17046;52.074;4.748;2023-04-01T05:36:15;9.50;99.90
30234;DHT22;17046;52.074;4.748;2023-04-01T05:38:41;9.50;99.90
30234;DHT22;17046;52.074;4.748;2023-04-01T05:41:11;9.60;99.90
30234;DHT22;17046;52.074;4.748;2023-04-01T05:43:37;9.50;99.90
30234;DHT22;17046;52.074;4.748;2023-04-01T05:46:04;9.50;99.90
30234;DHT22;17046;52.074;4.748;2023-04-01T05:48:29;9.50;99.90
30234;DHT22;17046;52.074;4.748;2023-04-01T05:50:55;9.50;99.90
30234;DHT22;17046;52.074;4.748;2023-04-01T05:53:20;9.50;99.90
30234;DHT22;17046;52.074;4.748;2023-04-01T05:55:47;9.50;99.90
30234;DHT22;17046;52.074;4.748;2023-04-01T05:58:13;9.50;99.90
30234;DHT22;17046;52.074;4.748;2023-04-01T06:00:39;9.40;99.90
30234;DHT22;17046;52.074;4.748;2023-04-01T06:03:04;9.50;99.90
30234;DHT22;17046;52.074;4.748;2023-04-01T06:05:43;9.50;99.90
30234;DHT22;17046;52.074;4.748;2023-04-01T06:08:12;9.60;99.90
30234;DHT22;17046;52.074;4.748;2023-04-01T06:10:53;9.60;99.90
30234;DHT22;17046;52.074;4.748;2023-04-01T06:16:26;9.20;99.90
30234;DHT22;17046;52.074;4.748;2023-04-01T06:30:16;9.50;99.90
30234;DHT22;17046;52.074;4.748;2023-04-01T06:38:11;9.50;99.90
30234;DHT22;17046;52.074;4.748;2023-04-01T06:41:06;9.50;99.90
30234;DHT22;17046;52.074;4.748;2023-04-01T06:43:59;9.50;99.90
30234;DHT22;17046;52.074;4.748;2023-04-01T06:46:52;9.60;99.90
30234;DHT22;17046;52.074;4.748;2023-04-01T06:49:50;9.60;99.90
30234;DHT22;17046;52.074;4.748;2023-04-01T06:52:35;9.70;99.90
30234;DHT22;17046;52.074;4.748;2023-04-01T06:55:24;9.70;99.90
30234;DHT22;17046;52.074;4.748;2023-04-01T06:57:55;9.70;99.90
30234;DHT22;17046;52.074;4.748;2023-04-01T07:00:35;9.60;99.90
30234;DHT22;17046;52.074;4.748;2023-04-01T07:03:32;9.70;99.90
30234;DHT22;17046;52.074;4.748;2023-04-01T07:06:05;9.70;99.90
30234;DHT22;17046;52.074;4.748;2023-04-01T07:08:35;9.80;99.90
30234;DHT22;17046;52.074;4.748;2023-04-01T07:11:06;9.80;99.90
30234;DHT22;17046;52.074;4.748;2023-04-01T07:13:49;9.80;99.90
30234;DHT22;17046;52.074;4.748;2023-04-01T07:18:50;9.70;99.90
30234;DHT22;17046;52.074;4.748;2023-04-01T07:22:04;9.80;99.90
30234;DHT22;17046;52.074;4.748;2023-04-01T07:24:36;9.70;99.90
30234;DHT22;17046;52.074;4.748;2023-04-01T07:27:04;9.80;99.90
30234;DHT22;17046;52.074;4.748;2023-04-01T07:29:31;9.80;99.90
30234;DHT22;17046;52.074;4.748;2023-04-01T07:35:02;9.80;99.90
30234;DHT22;17046;52.074;4.748;2023-04-01T07:37:42;9.80;99.90
30234;DHT22;17046;52.074;4.748;2023-04-01T07:48:30;9.90;99.90
30234;DHT22;17046;52.074;4.748;2023-04-01T07:51:21;9.90;99.90
30234;DHT22;17046;52.074;4.748;2023-04-01T07:56:51;9.90;99.90
30234;DHT22;17046;52.074;4.748;2023-04-01T07:59:31;9.90;99.90
30234;DHT22;17046;52.074;4.748;2023-04-01T08:02:15;10.00;99.90
30234;DHT22;17046;52.074;4.748;2023-04-01T08:04:53;9.80;99.90
30234;DHT22;17046;52.074;4.748;2023-04-01T08:10:27;10.30;99.90
30234;DHT22;17046;52.074;4.748;2023-04-01T08:13:14;10.10;99.90
30234;DHT22;17046;52.074;4.748;2023-04-01T08:21:05;10.10;99.90
30234;DHT22;17046;52.074;4.748;2023-04-01T08:23:48;10.20;99.90
30234;DHT22;17046;52.074;4.748;2023-04-01T08:29:12;10.50;99.90
30234;DHT22;17046;52.074;4.748;2023-04-01T08:35:07;10.20;99.90
30234;DHT22;17046;52.074;4.748;2023-04-01T08:37:39;10.30;99.90
30234;DHT22;17046;52.074;4.748;2023-04-01T08:40:32;10.10;99.90
30234;DHT22;17046;52.074;4.748;2023-04-01T08:43:07;10.20;99.90
30234;DHT22;17046;52.074;4.748;2023-04-01T08:51:08;10.20;99.90
30234;DHT22;17046;52.074;4.748;2023-04-01T08:56:36;10.20;99.90
30234;DHT22;17046;52.074;4.748;2023-04-01T08:59:36;10.20;99.90
30234;DHT22;17046;52.074;4.748;2023-04-01T09:02:20;10.30;99.90
30234;DHT22;17046;52.074;4.748;2023-04-01T09:07:58;10.50;99.90
30234;DHT22;17046;52.074;4.748;2023-04-01T09:13:42;10.80;99.90
30234;DHT22;17046;52.074;4.748;2023-04-01T09:38:11;11.00;99.90
30234;DHT22;17046;52.074;4.748;2023-04-01T09:40:56;10.90;99.90
30234;DHT22;17046;52.074;4.748;2023-04-01T09:43:38;11.00;99.90
30234;DHT22;17046;52.074;4.748;2023-04-01T09:53:56;11.10;99.90
30234;DHT22;17046;52.074;4.748;2023-04-01T10:03:00;11.00;99.90
30234;DHT22;17046;52.074;4.748;2023-04-01T10:08:28;11.00;99.90
30234;DHT22;17046;52.074;4.748;2023-04-01T10:11:11;11.10;99.90
30234;DHT22;17046;52.074;4.748;2023-04-01T10:39:29;11.10;99.90
30234;DHT22;17046;52.074;4.748;2023-04-01T10:42:19;10.90;99.90
30234;DHT22;17046;52.074;4.748;2023-04-01T10:53:42;11.10;99.90
30234;DHT22;17046;52.074;4.748;2023-04-01T11:07:22;10.90;99.90
30234;DHT22;17046;52.074;4.748;2023-04-01T11:27:03;11.20;99.90
30234;DHT22;17046;52.074;4.748;2023-04-01T11:30:05;11.20;99.90
30234;DHT22;17046;52.074;4.748;2023-04-01T11:38:19;11.50;99.90
30234;DHT22;17046;52.074;4.748;2023-04-01T11:41:19;11.60;99.90
30234;DHT22;17046;52.074;4.748;2023-04-01T11:49:36;12.00;99.90
30234;DHT22;17046;52.074;4.748;2023-04-01T12:15:28;12.90;99.90
30234;DHT22;17046;52.074;4.748;2023-04-01T12:18:12;12.90;99.90
30234;DHT22;17046;52.074;4.748;2023-04-01T12:20:56;12.80;99.90
30234;DHT22;17046;52.074;4.748;2023-04-01T12:48:27;12.40;99.90
30234;DHT22;17046;52.074;4.748;2023-04-01T12:56:56;11.90;99.90
30234;DHT22;17046;52.074;4.748;2023-04-01T13:02:46;11.60;99.90
30234;DHT22;17046;52.074;4.748;2023-04-01T13:05:32;11.50;99.90
30234;DHT22;17046;52.074;4.748;2023-04-01T13:24:39;11.80;99.90
30234;DHT22;17046;52.074;4.748;2023-04-01T13:27:18;11.90;99.90
30234;DHT22;17046;52.074;4.748;2023-04-01T13:29:59;11.80;99.90
30234;DHT22;17046;52.074;4.748;2023-04-01T13:37:52;11.50;99.90
30234;DHT22;17046;52.074;4.748;2023-04-01T13:45:55;11.50;99.90
30234;DHT22;17046;52.074;4.748;2023-04-01T13:48:58;11.60;99.90
30234;DHT22;17046;52.074;4.748;2023-04-01T13:54:24;11.60;99.90
30234;DHT22;17046;52.074;4.748;2023-04-01T14:03:10;11.60;99.90
30234;DHT22;17046;52.074;4.748;2023-04-01T14:23:01;11.30;99.90
30234;DHT22;17046;52.074;4.748;2023-04-01T14:25:35;11.40;99.90
30234;DHT22;17046;52.074;4.748;2023-04-01T14:47:08;11.00;99.90
30234;DHT22;17046;52.074;4.748;2023-04-01T14:49:47;10.90;99.90
30234;DHT22;17046;52.074;4.748;2023-04-01T14:52:24;11.30;99.90
30234;DHT22;17046;52.074;4.748;2023-04-01T14:54:53;11.00;99.90
30234;DHT22;17046;52.074;4.748;2023-04-01T14:57:28;10.90;99.90
30234;DHT22;17046;52.074;4.748;2023-04-01T15:00:00;11.10;99.90
30234;DHT22;17046;52.074;4.748;2023-04-01T15:05:05;10.80;99.90
30234;DHT22;17046;52.074;4.748;2023-04-01T15:08:01;10.70;99.90
30234;DHT22;17046;52.074;4.748;2023-04-01T15:23:57;10.50;99.90
30234;DHT22;17046;52.074;4.748;2023-04-01T15:40:30;10.60;99.90
30234;DHT22;17046;52.074;4.748;2023-04-01T15:52:24;10.50;99.90
30234;DHT22;17046;52.074;4.748;2023-04-01T16:00:26;10.60;99.90
30234;DHT22;17046;52.074;4.748;2023-04-01T16:15:53;10.10;99.90
30234;DHT22;17046;52.074;4.748;2023-04-01T16:18:36;10.10;99.90
30234;DHT22;17046;52.074;4.748;2023-04-01T16:21:46;10.10;99.90
30234;DHT22;17046;52.074;4.748;2023-04-01T16:24:15;10.10;99.90
30234;DHT22;17046;52.074;4.748;2023-04-01T16:26:58;10.10;99.90
30234;DHT22;17046;52.074;4.748;2023-04-01T16:34:54;10.10;99.90
30234;DHT22;17046;52.074;4.748;2023-04-01T16:43:10;9.50;99.90
30234;DHT22;17046;52.074;4.748;2023-04-01T16:45:41;9.60;99.90
30234;DHT22;17046;52.074;4.748;2023-04-01T16:48:12;10.00;99.90
30234;DHT22;17046;52.074;4.748;2023-04-01T16:50:58;9.90;99.90
30234;DHT22;17046;52.074;4.748;2023-04-01T16:53:47;10.00;99.90
30234;DHT22;17046;52.074;4.748;2023-04-01T16:56:24;9.90;99.90
30234;DHT22;17046;52.074;4.748;2023-04-01T16:59:13;10.00;99.90
30234;DHT22;17046;52.074;4.748;2023-04-01T17:04:43;9.70;99.90
30234;DHT22;17046;52.074;4.748;2023-04-01T17:12:39;10.00;99.90
30234;DHT22;17046;52.074;4.748;2023-04-01T17:18:33;9.70;99.90
30234;DHT22;17046;52.074;4.748;2023-04-01T17:21:16;9.80;99.90
30234;DHT22;17046;52.074;4.748;2023-04-01T17:23:52;9.90;99.90
30234;DHT22;17046;52.074;4.748;2023-04-01T17:32:00;9.60;99.90
30234;DHT22;17046;52.074;4.748;2023-04-01T17:34:45;9.70;99.90
30234;DHT22;17046;52.074;4.748;2023-04-01T17:43:26;9.60;99.90
30234;DHT22;17046;52.074;4.748;2023-04-01T17:45:56;9.60;99.90
30234;DHT22;17046;52.074;4.748;2023-04-01T17:51:23;9.50;99.90
30234;DHT22;17046;52.074;4.748;2023-04-01T17:59:38;8.00;99.90
30234;DHT22;17046;52.074;4.748;2023-04-01T18:13:42;9.30;99.90
30234;DHT22;17046;52.074;4.748;2023-04-01T18:21:49;9.20;99.90
30234;DHT22;17046;52.074;4.748;2023-04-01T18:24:32;9.10;99.90
30234;DHT22;17046;52.074;4.748;2023-04-01T18:29:41;8.70;99.90
30234;DHT22;17046;52.074;4.748;2023-04-01T18:32:35;9.20;99.90
30234;DHT22;17046;52.074;4.748;2023-04-01T18:37:53;9.10;99.90
30234;DHT22;17046;52.074;4.748;2023-04-01T18:40:42;9.10;99.90
30234;DHT22;17046;52.074;4.748;2023-04-01T18:46:38;9.10;99.90
30234;DHT22;17046;52.074;4.748;2023-04-01T18:51:43;9.30;99.90
30234;DHT22;17046;52.074;4.748;2023-04-01T18:54:22;9.10;99.90
30234;DHT22;17046;52.074;4.748;2023-04-01T18:56:49;9.10;99.90
30234;DHT22;17046;52.074;4.748;2023-04-01T18:59:25;9.00;99.90
30234;DHT22;17046;52.074;4.748;2023-04-01T19:02:07;9.00;99.90
30234;DHT22;17046;52.074;4.748;2023-04-01T19:04:41;9.00;99.90
30234;DHT22;17046;52.074;4.748;2023-04-01T19:10:07;9.00;99.90
30234;DHT22;17046;52.074;4.748;2023-04-01T19:13:00;9.00;99.90
30234;DHT22;17046;52.074;4.748;2023-04-01T19:18:34;9.00;99.90
30234;DHT22;17046;52.074;4.748;2023-04-01T19:27:11;8.70;99.90
30234;DHT22;17046;52.074;4.748;2023-04-01T19:45:06;8.70;99.90
30234;DHT22;17046;52.074;4.748;2023-04-01T19:50:33;8.70;99.90
30234;DHT22;17046;52.074;4.748;2023-04-01T19:53:34;8.60;99.90
30234;DHT22;17046;52.074;4.748;2023-04-01T19:56:20;8.60;99.90
30234;DHT22;17046;52.074;4.748;2023-04-01T20:04:10;8.50;99.90
30234;DHT22;17046;52.074;4.748;2023-04-01T20:06:54;8.50;99.90
30234;DHT22;17046;52.074;4.748;2023-04-01T20:12:13;8.50;99.90
30234;DHT22;17046;52.074;4.748;2023-04-01T20:14:50;8.50;99.90
30234;DHT22;17046;52.074;4.748;2023-04-01T20:17:39;8.50;99.90
30234;DHT22;17046;52.074;4.748;2023-04-01T20:28:09;8.50;99.90
30234;DHT22;17046;52.074;4.748;2023-04-01T20:33:23;8.50;99.90
30234;DHT22;17046;52.074;4.748;2023-04-01T20:39:10;8.40;99.90
30234;DHT22;17046;52.074;4.748;2023-04-01T20:44:41;8.30;99.90
30234;DHT22;17046;52.074;4.748;2023-04-01T20:58:28;8.30;99.90
30234;DHT22;17046;52.074;4.748;2023-04-01T21:01:14;8.10;99.90
30234;DHT22;17046;52.074;4.748;2023-04-01T21:03:57;8.20;99.90
30234;DHT22;17046;52.074;4.748;2023-04-01T21:06:44;8.20;99.90
30234;DHT22;17046;52.074;4.748;2023-04-01T21:09:31;8.20;99.90
30234;DHT22;17046;52.074;4.748;2023-04-01T21:12:19;8.20;99.90
30234;DHT22;17046;52.074;4.748;2023-04-01T21:20:55;8.10;99.90
30234;DHT22;17046;52.074;4.748;2023-04-01T21:23:53;8.10;99.90
30234;DHT22;17046;52.074;4.748;2023-04-01T21:45:14;7.90;99.90
30234;DHT22;17046;52.074;4.748;2023-04-01T21:50:35;7.90;99.90
30234;DHT22;17046;52.074;4.748;2023-04-01T21:53:34;7.90;99.90
30234;DHT22;17046;52.074;4.748;2023-04-01T22:09:29;7.80;99.90
30234;DHT22;17046;52.074;4.748;2023-04-01T22:20:40;7.70;99.90
30234;DHT22;17046;52.074;4.748;2023-04-01T22:26:18;7.60;99.90
30234;DHT22;17046;52.074;4.748;2023-04-01T22:31:52;7.60;99.90
30234;DHT22;17046;52.074;4.748;2023-04-01T22:34:37;7.60;99.90
30234;DHT22;17046;52.074;4.748;2023-04-01T22:51:07;7.50;99.90
30234;DHT22;17046;52.074;4.748;2023-04-01T22:56:45;7.50;99.90
30234;DHT22;17046;52.074;4.748;2023-04-01T23:02:11;7.50;99.90
30234;DHT22;17046;52.074;4.748;2023-04-01T23:04:42;7.50;99.90
30234;DHT22;17046;52.074;4.748;2023-04-01T23:10:04;7.40;99.90
30234;DHT22;17046;52.074;4.748;2023-04-01T23:12:32;7.40;99.90
30234;DHT22;17046;52.074;4.748;2023-04-01T23:15:00;7.40;99.90
30234;DHT22;17046;52.074;4.748;2023-04-01T23:17:39;7.40;99.90
30234;DHT22;17046;52.074;4.748;2023-04-01T23:27:58;7.30;99.90
30234;DHT22;17046;52.074;4.748;2023-04-01T23:33:29;7.30;99.90
30234;DHT22;17046;52.074;4.748;2023-04-01T23:35:59;7.30;99.90
30234;DHT22;17046;52.074;4.748;2023-04-01T23:38:35;7.30;99.90
30234;DHT22;17046;52.074;4.748;2023-04-01T23:41:03;7.30;99.90
30234;DHT22;17046;52.074;4.748;2023-04-01T23:43:36;7.20;99.90
30234;DHT22;17046;52.074;4.748;2023-04-01T23:46:05;7.30;99.90
30234;DHT22;17046;52.074;4.748;2023-04-01T23:48:44;7.30;99.90
30234;DHT22;17046;52.074;4.748;2023-04-01T23:53:45;7.30;99.90
30234;DHT22;17046;52.074;4.748;2023-04-01T23:56:11;6.60;99.90
30234;DHT22;17046;52.074;4.748;2023-04-01T23:58:47;6.90;99.90
